sensor_id;sensor_type;location;lat;lon;timestamp;temperature;humidity
12948;DHT22;6539;49.476;8.484;2024-03-02T00:00:10;7.80;99.90
12948;DHT22;6539;49.476;8.484;2024-03-02T00:02:58;7.80;99.90
12948;DHT22;6539;49.476;8.484;2024-03-02T00:05:49;7.80;99.90
12948;DHT22;6539;49.476;8.484;2024-03-02T00:08:38;7.80;99.90
12948;DHT22;6539;49.476;8.484;2024-03-02T00:11:25;7.70;99.90
12948;DHT22;6539;49.476;8.484;2024-03-02T00:14:13;7.70;99.90
12948;DHT22;6539;49.476;8.484;2024-03-02T00:17:02;7.70;99.90
12948;DHT22;6539;49.476;8.484;2024-03-02T00:19:48;7.70;99.90
12948;DHT22;6539;49.476;8.484;2024-03-02T00:22:35;7.70;99.90
12948;DHT22;6539;49.476;8.484;2024-03-02T00:25:23;7.70;99.90
12948;DHT22;6539;49.476;8.484;2024-03-02T00:28:20;7.70;99.90
12948;DHT22;6539;49.476;8.484;2024-03-02T00:31:10;7.70;99.90
12948;DHT22;6539;49.476;8.484;2024-03-02T00:33:59;7.70;99.90
12948;DHT22;6539;49.476;8.484;2024-03-02T00:36:59;7.70;99.90
12948;DHT22;6539;49.476;8.484;2024-03-02T00:39:49;7.70;99.90
12948;DHT22;6539;49.476;8.484;2024-03-02T00:42:35;7.70;99.90
12948;DHT22;6539;49.476;8.484;2024-03-02T00:45:21;7.70;99.90
12948;DHT22;6539;49.476;8.484;2024-03-02T00:48:10;7.80;99.90
12948;DHT22;6539;49.476;8.484;2024-03-02T00:51:01;7.80;99.90
12948;DHT22;6539;49.476;8.484;2024-03-02T00:53:55;7.80;99.90
12948;DHT22;6539;49.476;8.484;2024-03-02T00:56:43;7.70;99.90
12948;DHT22;6539;49.476;8.484;2024-03-02T00:59:32;7.70;99.90
12948;DHT22;6539;49.476;8.484;2024-03-02T01:02:18;7.70;99.90
12948;DHT22;6539;49.476;8.484;2024-03-02T01:05:06;7.70;99.90
12948;DHT22;6539;49.476;8.484;2024-03-02T01:07:52;7.60;99.90
12948;DHT22;6539;49.476;8.484;2024-03-02T01:10:45;7.60;99.90
12948;DHT22;6539;49.476;8.484;2024-03-02T01:13:34;7.70;99.90
12948;DHT22;6539;49.476;8.484;2024-03-02T01:16:25;7.70;99.90
12948;DHT22;6539;49.476;8.484;2024-03-02T01:19:14;7.60;99.90
12948;DHT22;6539;49.476;8.484;2024-03-02T01:22:02;7.70;99.90
12948;DHT22;6539;49.476;8.484;2024-03-02T01:24:48;7.70;99.90
12948;DHT22;6539;49.476;8.484;2024-03-02T01:27:35;7.60;99.90
12948;DHT22;6539;49.476;8.484;2024-03-02T01:30:21;7.60;99.90
12948;DHT22;6539;49.476;8.484;2024-03-02T01:33:11;7.60;99.90
12948;DHT22;6539;49.476;8.484;2024-03-02T01:36:00;7.60;99.90
12948;DHT22;6539;49.476;8.484;2024-03-02T01:38:48;7.60;99.90
12948;DHT22;6539;49.476;8.484;2024-03-02T01:41:37;7.60;99.90
12948;DHT22;6539;49.476;8.484;2024-03-02T01:44:25;7.50;99.90
12948;DHT22;6539;49.476;8.484;2024-03-02T01:47:11;7.50;99.90
12948;DHT22;6539;49.476;8.484;2024-03-02T01:49:58;7.50;99.90
12948;DHT22;6539;49.476;8.484;2024-03-02T01:52:44;7.50;99.90
12948;DHT22;6539;49.476;8.484;2024-03-02T01:55:31;7.50;99.90
12948;DHT22;6539;49.476;8.484;2024-03-02T01:58:18;7.50;99.90
12948;DHT22;6539;49.476;8.484;2024-03-02T02:01:04;7.50;99.90
12948;DHT22;6539;49.476;8.484;2024-03-02T02:03:51;7.50;99.90
12948;DHT22;6539;49.476;8.484;2024-03-02T02:06:39;7.50;99.90
12948;DHT22;6539;49.476;8.484;2024-03-02T02:09:26;7.40;99.90
12948;DHT22;6539;49.476;8.484;2024-03-02T02:12:12;7.40;99.90
12948;DHT22;6539;49.476;8.484;2024-03-02T02:14:58;7.40;99.90
12948;DHT22;6539;49.476;8.484;2024-03-02T02:17:46;7.40;99.90
12948;DHT22;6539;49.476;8.484;2024-03-02T02:20:32;7.40;99.90
12948;DHT22;6539;49.476;8.484;2024-03-02T02:23:19;7.40;99.90
12948;DHT22;6539;49.476;8.484;2024-03-02T02:26:07;7.40;99.90
12948;DHT22;6539;49.476;8.484;2024-03-02T02:28:54;7.30;99.90
12948;DHT22;6539;49.476;8.484;2024-03-02T02:31:42;7.30;99.90
12948;DHT22;6539;49.476;8.484;2024-03-02T02:34:29;7.30;99.90
12948;DHT22;6539;49.476;8.484;2024-03-02T02:37:15;7.30;99.90
12948;DHT22;6539;49.476;8.484;2024-03-02T02:40:01;7.40;99.90
12948;DHT22;6539;49.476;8.484;2024-03-02T02:42:50;7.30;99.90
12948;DHT22;6539;49.476;8.484;2024-03-02T02:45:37;7.40;99.90
12948;DHT22;6539;49.476;8.484;2024-03-02T02:48:23;7.30;99.90
12948;DHT22;6539;49.476;8.484;2024-03-02T02:51:12;7.30;99.90
12948;DHT22;6539;49.476;8.484;2024-03-02T02:53:58;7.30;99.90
12948;DHT22;6539;49.476;8.484;2024-03-02T02:56:44;7.20;99.90
12948;DHT22;6539;49.476;8.484;2024-03-02T02:59:30;7.10;99.90
12948;DHT22;6539;49.476;8.484;2024-03-02T03:02:16;7.10;99.90
12948;DHT22;6539;49.476;8.484;2024-03-02T03:05:02;7.00;99.90
12948;DHT22;6539;49.476;8.484;2024-03-02T03:07:49;7.00;99.90
12948;DHT22;6539;49.476;8.484;2024-03-02T03:10:35;7.00;99.90
12948;DHT22;6539;49.476;8.484;2024-03-02T03:13:22;6.90;99.90
12948;DHT22;6539;49.476;8.484;2024-03-02T03:16:08;6.90;99.90
12948;DHT22;6539;49.476;8.484;2024-03-02T03:18:54;6.80;99.90
12948;DHT22;6539;49.476;8.484;2024-03-02T03:21:40;6.70;99.90
12948;DHT22;6539;49.476;8.484;2024-03-02T03:24:26;6.70;99.90
12948;DHT22;6539;49.476;8.484;2024-03-02T03:27:12;6.70;99.90
12948;DHT22;6539;49.476;8.484;2024-03-02T03:30:03;6.70;99.90
12948;DHT22;6539;49.476;8.484;2024-03-02T03:32:56;6.70;99.90
12948;DHT22;6539;49.476;8.484;2024-03-02T03:35:44;6.70;99.90
12948;DHT22;6539;49.476;8.484;2024-03-02T03:38:30;6.70;99.90
12948;DHT22;6539;49.476;8.484;2024-03-02T03:41:16;6.70;99.90
12948;DHT22;6539;49.476;8.484;2024-03-02T03:44:02;6.70;99.90
12948;DHT22;6539;49.476;8.484;2024-03-02T03:46:49;6.70;99.90
12948;DHT22;6539;49.476;8.484;2024-03-02T03:49:35;6.80;99.90
12948;DHT22;6539;49.476;8.484;2024-03-02T03:52:21;6.80;99.90
12948;DHT22;6539;49.476;8.484;2024-03-02T03:55:07;6.80;99.90
12948;DHT22;6539;49.476;8.484;2024-03-02T03:57:56;6.90;99.90
12948;DHT22;6539;49.476;8.484;2024-03-02T04:00:42;6.90;99.90
12948;DHT22;6539;49.476;8.484;2024-03-02T04:03:28;6.90;99.90
12948;DHT22;6539;49.476;8.484;2024-03-02T04:06:17;6.90;99.90
12948;DHT22;6539;49.476;8.484;2024-03-02T04:09:03;7.00;99.90
12948;DHT22;6539;49.476;8.484;2024-03-02T04:11:52;6.90;99.90
12948;DHT22;6539;49.476;8.484;2024-03-02T04:14:43;6.90;99.90
12948;DHT22;6539;49.476;8.484;2024-03-02T04:17:31;6.90;99.90
12948;DHT22;6539;49.476;8.484;2024-03-02T04:20:21;6.90;99.90
12948;DHT22;6539;49.476;8.484;2024-03-02T04:23:09;6.90;99.90
12948;DHT22;6539;49.476;8.484;2024-03-02T04:26:00;6.80;99.90
12948;DHT22;6539;49.476;8.484;2024-03-02T04:28:47;6.80;99.90
12948;DHT22;6539;49.476;8.484;2024-03-02T04:31:36;6.70;99.90
12948;DHT22;6539;49.476;8.484;2024-03-02T04:34:22;6.70;99.90
12948;DHT22;6539;49.476;8.484;2024-03-02T04:37:10;6.70;99.90
12948;DHT22;6539;49.476;8.484;2024-03-02T04:39:58;6.60;99.90
12948;DHT22;6539;49.476;8.484;2024-03-02T04:42:47;6.60;99.90
12948;DHT22;6539;49.476;8.484;2024-03-02T04:45:33;6.50;99.90
12948;DHT22;6539;49.476;8.484;2024-03-02T04:48:21;6.40;99.90
12948;DHT22;6539;49.476;8.484;2024-03-02T04:51:07;6.40;99.90
12948;DHT22;6539;49.476;8.484;2024-03-02T04:53:56;6.30;99.90
12948;DHT22;6539;49.476;8.484;2024-03-02T04:56:42;6.30;99.90
12948;DHT22;6539;49.476;8.484;2024-03-02T04:59:35;6.20;99.90
12948;DHT22;6539;49.476;8.484;2024-03-02T05:02:23;6.20;99.90
12948;DHT22;6539;49.476;8.484;2024-03-02T05:05:09;6.20;99.90
12948;DHT22;6539;49.476;8.484;2024-03-02T05:07:58;6.10;99.90
12948;DHT22;6539;49.476;8.484;2024-03-02T05:10:48;6.10;99.90
12948;DHT22;6539;49.476;8.484;2024-03-02T05:13:37;6.00;99.90
12948;DHT22;6539;49.476;8.484;2024-03-02T05:16:23;5.90;99.90
12948;DHT22;6539;49.476;8.484;2024-03-02T05:19:09;6.00;99.90
12948;DHT22;6539;49.476;8.484;2024-03-02T05:21:55;6.00;99.90
12948;DHT22;6539;49.476;8.484;2024-03-02T05:24:41;6.00;99.90
12948;DHT22;6539;49.476;8.484;2024-03-02T05:27:30;6.00;99.90
12948;DHT22;6539;49.476;8.484;2024-03-02T05:30:18;6.00;99.90
12948;DHT22;6539;49.476;8.484;2024-03-02T05:33:04;6.00;99.90
12948;DHT22;6539;49.476;8.484;2024-03-02T05:35:50;5.90;99.90
12948;DHT22;6539;49.476;8.484;2024-03-02T05:38:37;5.90;99.90
12948;DHT22;6539;49.476;8.484;2024-03-02T05:41:23;5.90;99.90
12948;DHT22;6539;49.476;8.484;2024-03-02T05:44:09;6.00;99.90
12948;DHT22;6539;49.476;8.484;2024-03-02T05:46:55;6.00;99.90
12948;DHT22;6539;49.476;8.484;2024-03-02T05:49:44;6.00;99.90
12948;DHT22;6539;49.476;8.484;2024-03-02T05:52:32;6.00;99.90
12948;DHT22;6539;49.476;8.484;2024-03-02T05:55:19;6.10;99.90
12948;DHT22;6539;49.476;8.484;2024-03-02T05:58:08;6.10;99.90
12948;DHT22;6539;49.476;8.484;2024-03-02T06:01:12;6.10;99.90
12948;DHT22;6539;49.476;8.484;2024-03-02T06:04:01;6.10;99.90
12948;DHT22;6539;49.476;8.484;2024-03-02T06:06:47;6.10;99.90
12948;DHT22;6539;49.476;8.484;2024-03-02T06:09:35;6.10;99.90
12948;DHT22;6539;49.476;8.484;2024-03-02T06:12:21;6.10;99.90
12948;DHT22;6539;49.476;8.484;2024-03-02T06:15:10;6.10;99.90
12948;DHT22;6539;49.476;8.484;2024-03-02T06:18:02;6.10;99.90
12948;DHT22;6539;49.476;8.484;2024-03-02T06:20:48;6.10;99.90
12948;DHT22;6539;49.476;8.484;2024-03-02T06:23:34;6.10;99.90
12948;DHT22;6539;49.476;8.484;2024-03-02T06:26:21;6.20;99.90
12948;DHT22;6539;49.476;8.484;2024-03-02T06:29:10;6.10;99.90
12948;DHT22;6539;49.476;8.484;2024-03-02T06:31:56;6.10;99.90
12948;DHT22;6539;49.476;8.484;2024-03-02T06:34:42;6.00;99.90
12948;DHT22;6539;49.476;8.484;2024-03-02T06:37:35;6.00;99.90
12948;DHT22;6539;49.476;8.484;2024-03-02T06:40:25;6.00;99.90
12948;DHT22;6539;49.476;8.484;2024-03-02T06:43:11;6.00;99.90
12948;DHT22;6539;49.476;8.484;2024-03-02T06:45:57;6.10;99.90
12948;DHT22;6539;49.476;8.484;2024-03-02T06:48:46;6.10;99.90
12948;DHT22;6539;49.476;8.484;2024-03-02T06:51:34;6.20;99.90
12948;DHT22;6539;49.476;8.484;2024-03-02T06:54:20;6.20;99.90
12948;DHT22;6539;49.476;8.484;2024-03-02T06:57:08;6.20;99.90
12948;DHT22;6539;49.476;8.484;2024-03-02T06:59:54;6.30;99.90
12948;DHT22;6539;49.476;8.484;2024-03-02T07:02:46;6.30;99.90
12948;DHT22;6539;49.476;8.484;2024-03-02T07:05:33;6.30;99.90
12948;DHT22;6539;49.476;8.484;2024-03-02T07:08:21;6.30;99.90
12948;DHT22;6539;49.476;8.484;2024-03-02T07:11:07;6.40;99.90
12948;DHT22;6539;49.476;8.484;2024-03-02T07:13:56;6.50;99.90
12948;DHT22;6539;49.476;8.484;2024-03-02T07:16:42;6.40;99.90
12948;DHT22;6539;49.476;8.484;2024-03-02T07:19:28;6.40;99.90
12948;DHT22;6539;49.476;8.484;2024-03-02T07:22:17;6.50;99.90
12948;DHT22;6539;49.476;8.484;2024-03-02T07:25:06;6.60;99.90
12948;DHT22;6539;49.476;8.484;2024-03-02T07:27:53;6.60;99.90
12948;DHT22;6539;49.476;8.484;2024-03-02T07:30:42;6.70;99.90
12948;DHT22;6539;49.476;8.484;2024-03-02T07:33:28;6.80;99.90
12948;DHT22;6539;49.476;8.484;2024-03-02T07:36:17;7.00;99.90
12948;DHT22;6539;49.476;8.484;2024-03-02T07:39:03;7.30;99.90
12948;DHT22;6539;49.476;8.484;2024-03-02T07:41:49;7.40;99.90
12948;DHT22;6539;49.476;8.484;2024-03-02T07:44:35;7.50;99.90
12948;DHT22;6539;49.476;8.484;2024-03-02T07:47:21;7.50;99.90
12948;DHT22;6539;49.476;8.484;2024-03-02T07:50:12;7.60;99.90
12948;DHT22;6539;49.476;8.484;2024-03-02T07:53:03;7.70;99.90
12948;DHT22;6539;49.476;8.484;2024-03-02T07:55:53;7.90;99.90
12948;DHT22;6539;49.476;8.484;2024-03-02T07:58:42;8.10;99.90
12948;DHT22;6539;49.476;8.484;2024-03-02T08:01:32;8.20;99.90
12948;DHT22;6539;49.476;8.484;2024-03-02T08:04:21;8.30;99.90
12948;DHT22;6539;49.476;8.484;2024-03-02T08:07:09;8.40;99.90
12948;DHT22;6539;49.476;8.484;2024-03-02T08:09:58;8.50;99.90
12948;DHT22;6539;49.476;8.484;2024-03-02T08:12:49;8.80;99.90
12948;DHT22;6539;49.476;8.484;2024-03-02T08:15:38;8.80;99.90
12948;DHT22;6539;49.476;8.484;2024-03-02T08:18:27;8.90;99.90
12948;DHT22;6539;49.476;8.484;2024-03-02T08:21:13;9.00;99.90
12948;DHT22;6539;49.476;8.484;2024-03-02T08:24:01;9.00;99.90
12948;DHT22;6539;49.476;8.484;2024-03-02T08:26:50;9.00;99.90
12948;DHT22;6539;49.476;8.484;2024-03-02T08:29:36;9.10;99.90
12948;DHT22;6539;49.476;8.484;2024-03-02T08:32:22;9.20;99.90
12948;DHT22;6539;49.476;8.484;2024-03-02T08:35:11;9.20;99.90
12948;DHT22;6539;49.476;8.484;2024-03-02T08:37:59;9.30;99.90
12948;DHT22;6539;49.476;8.484;2024-03-02T08:40:46;9.20;99.90
12948;DHT22;6539;49.476;8.484;2024-03-02T08:43:33;9.20;99.90
12948;DHT22;6539;49.476;8.484;2024-03-02T08:46:19;9.30;99.90
12948;DHT22;6539;49.476;8.484;2024-03-02T08:49:06;9.40;99.90
12948;DHT22;6539;49.476;8.484;2024-03-02T08:51:55;9.40;99.90
12948;DHT22;6539;49.476;8.484;2024-03-02T08:54:43;9.50;99.90
12948;DHT22;6539;49.476;8.484;2024-03-02T08:57:31;9.60;99.90
12948;DHT22;6539;49.476;8.484;2024-03-02T09:00:18;9.50;99.90
12948;DHT22;6539;49.476;8.484;2024-03-02T09:03:04;9.70;99.90
12948;DHT22;6539;49.476;8.484;2024-03-02T09:05:53;9.70;99.90
12948;DHT22;6539;49.476;8.484;2024-03-02T09:08:39;9.80;99.90
12948;DHT22;6539;49.476;8.484;2024-03-02T09:11:27;9.90;99.90
12948;DHT22;6539;49.476;8.484;2024-03-02T09:14:15;9.80;99.90
12948;DHT22;6539;49.476;8.484;2024-03-02T09:17:01;9.80;99.90
12948;DHT22;6539;49.476;8.484;2024-03-02T09:19:50;9.80;99.90
12948;DHT22;6539;49.476;8.484;2024-03-02T09:22:38;9.80;99.90
12948;DHT22;6539;49.476;8.484;2024-03-02T09:25:24;9.80;99.90
12948;DHT22;6539;49.476;8.484;2024-03-02T09:28:11;9.90;99.90
12948;DHT22;6539;49.476;8.484;2024-03-02T09:31:01;10.00;99.90
12948;DHT22;6539;49.476;8.484;2024-03-02T09:33:47;10.10;99.90
12948;DHT22;6539;49.476;8.484;2024-03-02T09:36:38;10.20;99.90
12948;DHT22;6539;49.476;8.484;2024-03-02T09:39:24;10.30;99.90
12948;DHT22;6539;49.476;8.484;2024-03-02T09:42:11;10.50;99.90
12948;DHT22;6539;49.476;8.484;2024-03-02T09:44:58;10.80;99.90
12948;DHT22;6539;49.476;8.484;2024-03-02T09:47:53;10.90;99.90
12948;DHT22;6539;49.476;8.484;2024-03-02T09:50:42;11.30;99.90
12948;DHT22;6539;49.476;8.484;2024-03-02T09:53:31;12.00;99.90
12948;DHT22;6539;49.476;8.484;2024-03-02T09:56:19;12.00;99.90
12948;DHT22;6539;49.476;8.484;2024-03-02T09:59:07;12.20;99.90
12948;DHT22;6539;49.476;8.484;2024-03-02T10:02:00;12.40;99.90
12948;DHT22;6539;49.476;8.484;2024-03-02T10:04:52;12.60;99.90
12948;DHT22;6539;49.476;8.484;2024-03-02T10:07:38;13.10;99.90
12948;DHT22;6539;49.476;8.484;2024-03-02T10:10:40;13.70;99.90
12948;DHT22;6539;49.476;8.484;2024-03-02T10:13:29;14.10;99.90
12948;DHT22;6539;49.476;8.484;2024-03-02T10:16:17;14.40;99.90
12948;DHT22;6539;49.476;8.484;2024-03-02T10:19:21;14.30;99.90
12948;DHT22;6539;49.476;8.484;2024-03-02T10:22:09;14.50;99.90
12948;DHT22;6539;49.476;8.484;2024-03-02T10:24:58;15.20;99.90
12948;DHT22;6539;49.476;8.484;2024-03-02T10:27:44;15.00;99.90
12948;DHT22;6539;49.476;8.484;2024-03-02T10:30:30;14.80;99.90
12948;DHT22;6539;49.476;8.484;2024-03-02T10:33:19;15.00;99.90
12948;DHT22;6539;49.476;8.484;2024-03-02T10:36:05;15.80;99.90
12948;DHT22;6539;49.476;8.484;2024-03-02T10:38:56;16.30;99.90
12948;DHT22;6539;49.476;8.484;2024-03-02T10:41:45;16.30;99.90
12948;DHT22;6539;49.476;8.484;2024-03-02T10:44:38;16.20;99.90
12948;DHT22;6539;49.476;8.484;2024-03-02T10:47:29;17.20;99.90
12948;DHT22;6539;49.476;8.484;2024-03-02T10:50:20;16.80;99.90
12948;DHT22;6539;49.476;8.484;2024-03-02T10:53:06;17.10;99.90
12948;DHT22;6539;49.476;8.484;2024-03-02T10:55:58;17.10;99.90
12948;DHT22;6539;49.476;8.484;2024-03-02T10:58:51;16.80;99.90
12948;DHT22;6539;49.476;8.484;2024-03-02T11:02:10;17.10;99.90
12948;DHT22;6539;49.476;8.484;2024-03-02T11:05:00;16.40;99.90
12948;DHT22;6539;49.476;8.484;2024-03-02T11:07:57;16.10;99.90
12948;DHT22;6539;49.476;8.484;2024-03-02T11:10:51;16.20;99.90
12948;DHT22;6539;49.476;8.484;2024-03-02T11:13:53;17.00;99.90
12948;DHT22;6539;49.476;8.484;2024-03-02T11:16:46;16.70;99.90
12948;DHT22;6539;49.476;8.484;2024-03-02T11:19:33;16.70;99.90
12948;DHT22;6539;49.476;8.484;2024-03-02T11:22:22;16.80;99.90
12948;DHT22;6539;49.476;8.484;2024-03-02T11:25:23;17.60;99.90
12948;DHT22;6539;49.476;8.484;2024-03-02T11:28:11;17.40;99.90
12948;DHT22;6539;49.476;8.484;2024-03-02T11:30:57;17.50;99.90
12948;DHT22;6539;49.476;8.484;2024-03-02T11:33:44;18.20;99.90
12948;DHT22;6539;49.476;8.484;2024-03-02T11:36:31;18.80;99.90
12948;DHT22;6539;49.476;8.484;2024-03-02T11:39:18;18.80;99.90
12948;DHT22;6539;49.476;8.484;2024-03-02T11:42:06;18.90;99.30
12948;DHT22;6539;49.476;8.484;2024-03-02T11:44:56;19.60;97.80
12948;DHT22;6539;49.476;8.484;2024-03-02T11:48:10;19.40;96.50
12948;DHT22;6539;49.476;8.484;2024-03-02T11:51:00;19.20;97.00
12948;DHT22;6539;49.476;8.484;2024-03-02T11:53:47;19.10;96.30
12948;DHT22;6539;49.476;8.484;2024-03-02T11:56:36;19.00;96.70
12948;DHT22;6539;49.476;8.484;2024-03-02T11:59:23;19.40;95.90
12948;DHT22;6539;49.476;8.484;2024-03-02T12:02:19;19.40;95.40
12948;DHT22;6539;49.476;8.484;2024-03-02T12:05:09;19.40;95.40
12948;DHT22;6539;49.476;8.484;2024-03-02T12:08:02;20.30;95.20
12948;DHT22;6539;49.476;8.484;2024-03-02T12:10:59;19.90;94.20
12948;DHT22;6539;49.476;8.484;2024-03-02T12:13:53;19.90;94.00
12948;DHT22;6539;49.476;8.484;2024-03-02T12:16:46;19.80;93.80
12948;DHT22;6539;49.476;8.484;2024-03-02T12:19:32;20.10;93.70
12948;DHT22;6539;49.476;8.484;2024-03-02T12:22:23;20.20;92.60
12948;DHT22;6539;49.476;8.484;2024-03-02T12:25:09;20.10;92.30
12948;DHT22;6539;49.476;8.484;2024-03-02T12:27:57;20.00;92.40
12948;DHT22;6539;49.476;8.484;2024-03-02T12:30:48;21.00;91.70
12948;DHT22;6539;49.476;8.484;2024-03-02T12:33:35;21.30;90.70
12948;DHT22;6539;49.476;8.484;2024-03-02T12:36:22;21.80;89.30
12948;DHT22;6539;49.476;8.484;2024-03-02T12:39:10;21.70;88.80
12948;DHT22;6539;49.476;8.484;2024-03-02T12:41:59;22.30;86.60
12948;DHT22;6539;49.476;8.484;2024-03-02T12:44:49;22.10;83.90
12948;DHT22;6539;49.476;8.484;2024-03-02T12:47:40;21.30;85.80
12948;DHT22;6539;49.476;8.484;2024-03-02T12:50:27;22.10;84.60
12948;DHT22;6539;49.476;8.484;2024-03-02T12:53:16;22.40;82.10
12948;DHT22;6539;49.476;8.484;2024-03-02T12:56:09;22.20;82.60
12948;DHT22;6539;49.476;8.484;2024-03-02T12:58:58;22.70;81.10
12948;DHT22;6539;49.476;8.484;2024-03-02T13:01:52;22.90;80.00
12948;DHT22;6539;49.476;8.484;2024-03-02T13:04:43;22.90;78.90
12948;DHT22;6539;49.476;8.484;2024-03-02T13:07:29;22.60;78.90
12948;DHT22;6539;49.476;8.484;2024-03-02T13:10:19;22.80;77.30
12948;DHT22;6539;49.476;8.484;2024-03-02T13:13:08;22.50;77.00
12948;DHT22;6539;49.476;8.484;2024-03-02T13:15:55;22.30;77.40
12948;DHT22;6539;49.476;8.484;2024-03-02T13:18:41;22.00;76.90
12948;DHT22;6539;49.476;8.484;2024-03-02T13:21:28;22.00;77.90
12948;DHT22;6539;49.476;8.484;2024-03-02T13:24:18;21.90;77.80
12948;DHT22;6539;49.476;8.484;2024-03-02T13:27:05;22.90;76.80
12948;DHT22;6539;49.476;8.484;2024-03-02T13:29:56;22.70;76.30
12948;DHT22;6539;49.476;8.484;2024-03-02T13:32:42;22.40;75.90
12948;DHT22;6539;49.476;8.484;2024-03-02T13:35:28;21.60;76.50
12948;DHT22;6539;49.476;8.484;2024-03-02T13:38:19;21.10;77.50
12948;DHT22;6539;49.476;8.484;2024-03-02T13:41:13;21.30;78.20
12948;DHT22;6539;49.476;8.484;2024-03-02T13:44:01;21.40;78.50
12948;DHT22;6539;49.476;8.484;2024-03-02T13:46:48;21.30;78.50
12948;DHT22;6539;49.476;8.484;2024-03-02T13:49:34;21.10;80.10
12948;DHT22;6539;49.476;8.484;2024-03-02T13:52:21;20.80;81.40
12948;DHT22;6539;49.476;8.484;2024-03-02T13:55:07;21.00;81.60
12948;DHT22;6539;49.476;8.484;2024-03-02T13:57:54;21.50;81.70
12948;DHT22;6539;49.476;8.484;2024-03-02T14:00:40;21.70;81.30
12948;DHT22;6539;49.476;8.484;2024-03-02T14:03:26;21.20;81.10
12948;DHT22;6539;49.476;8.484;2024-03-02T14:06:15;21.20;81.70
12948;DHT22;6539;49.476;8.484;2024-03-02T14:09:03;20.90;81.20
12948;DHT22;6539;49.476;8.484;2024-03-02T14:11:52;20.90;81.30
12948;DHT22;6539;49.476;8.484;2024-03-02T14:14:41;20.60;80.90
12948;DHT22;6539;49.476;8.484;2024-03-02T14:17:27;20.40;81.60
12948;DHT22;6539;49.476;8.484;2024-03-02T14:20:14;20.20;84.00
12948;DHT22;6539;49.476;8.484;2024-03-02T14:23:00;20.30;85.20
12948;DHT22;6539;49.476;8.484;2024-03-02T14:25:47;20.10;85.80
12948;DHT22;6539;49.476;8.484;2024-03-02T14:28:36;19.70;84.60
12948;DHT22;6539;49.476;8.484;2024-03-02T14:31:22;19.20;86.50
12948;DHT22;6539;49.476;8.484;2024-03-02T14:34:08;18.70;86.70
12948;DHT22;6539;49.476;8.484;2024-03-02T14:36:55;18.50;88.10
12948;DHT22;6539;49.476;8.484;2024-03-02T14:39:41;18.40;90.00
12948;DHT22;6539;49.476;8.484;2024-03-02T14:42:28;18.50;90.30
12948;DHT22;6539;49.476;8.484;2024-03-02T14:45:17;18.30;91.00
12948;DHT22;6539;49.476;8.484;2024-03-02T14:48:03;18.10;91.30
12948;DHT22;6539;49.476;8.484;2024-03-02T14:50:50;17.80;91.80
12948;DHT22;6539;49.476;8.484;2024-03-02T14:53:37;17.80;92.10
12948;DHT22;6539;49.476;8.484;2024-03-02T14:56:23;17.70;92.10
12948;DHT22;6539;49.476;8.484;2024-03-02T14:59:09;17.40;92.70
12948;DHT22;6539;49.476;8.484;2024-03-02T15:01:56;17.20;93.10
12948;DHT22;6539;49.476;8.484;2024-03-02T15:04:45;17.10;93.20
12948;DHT22;6539;49.476;8.484;2024-03-02T15:07:34;17.00;93.80
12948;DHT22;6539;49.476;8.484;2024-03-02T15:10:20;16.80;94.30
12948;DHT22;6539;49.476;8.484;2024-03-02T15:13:06;16.70;94.30
12948;DHT22;6539;49.476;8.484;2024-03-02T15:15:52;16.60;94.30
12948;DHT22;6539;49.476;8.484;2024-03-02T15:18:40;16.60;94.60
12948;DHT22;6539;49.476;8.484;2024-03-02T15:21:33;16.50;94.70
12948;DHT22;6539;49.476;8.484;2024-03-02T15:24:22;16.60;94.70
12948;DHT22;6539;49.476;8.484;2024-03-02T15:27:08;16.60;94.80
12948;DHT22;6539;49.476;8.484;2024-03-02T15:29:54;16.50;95.20
12948;DHT22;6539;49.476;8.484;2024-03-02T15:32:43;16.40;95.60
12948;DHT22;6539;49.476;8.484;2024-03-02T15:35:32;16.40;96.00
12948;DHT22;6539;49.476;8.484;2024-03-02T15:38:20;16.30;96.50
12948;DHT22;6539;49.476;8.484;2024-03-02T15:41:07;16.20;96.80
12948;DHT22;6539;49.476;8.484;2024-03-02T15:43:53;16.20;96.80
12948;DHT22;6539;49.476;8.484;2024-03-02T15:46:39;16.20;97.00
12948;DHT22;6539;49.476;8.484;2024-03-02T15:49:26;16.10;97.10
12948;DHT22;6539;49.476;8.484;2024-03-02T15:52:13;16.10;97.40
12948;DHT22;6539;49.476;8.484;2024-03-02T15:55:04;16.10;97.70
12948;DHT22;6539;49.476;8.484;2024-03-02T15:57:53;16.00;97.80
12948;DHT22;6539;49.476;8.484;2024-03-02T16:00:39;15.90;98.20
12948;DHT22;6539;49.476;8.484;2024-03-02T16:03:28;15.80;98.40
12948;DHT22;6539;49.476;8.484;2024-03-02T16:06:14;15.80;98.70
12948;DHT22;6539;49.476;8.484;2024-03-02T16:09:00;15.90;99.10
12948;DHT22;6539;49.476;8.484;2024-03-02T16:11:46;15.90;99.10
12948;DHT22;6539;49.476;8.484;2024-03-02T16:14:32;15.80;99.00
12948;DHT22;6539;49.476;8.484;2024-03-02T16:17:20;15.90;99.10
12948;DHT22;6539;49.476;8.484;2024-03-02T16:20:06;15.70;99.40
12948;DHT22;6539;49.476;8.484;2024-03-02T16:22:55;15.60;99.40
12948;DHT22;6539;49.476;8.484;2024-03-02T16:25:41;15.50;99.90
12948;DHT22;6539;49.476;8.484;2024-03-02T16:28:30;15.50;99.90
12948;DHT22;6539;49.476;8.484;2024-03-02T16:31:16;15.40;99.90
12948;DHT22;6539;49.476;8.484;2024-03-02T16:34:03;15.40;99.90
12948;DHT22;6539;49.476;8.484;2024-03-02T16:36:52;15.30;99.90
12948;DHT22;6539;49.476;8.484;2024-03-02T16:39:38;15.30;99.90
12948;DHT22;6539;49.476;8.484;2024-03-02T16:42:26;15.30;99.90
12948;DHT22;6539;49.476;8.484;2024-03-02T16:45:15;15.30;99.90
12948;DHT22;6539;49.476;8.484;2024-03-02T16:48:01;15.20;99.90
12948;DHT22;6539;49.476;8.484;2024-03-02T16:50:47;15.20;99.90
12948;DHT22;6539;49.476;8.484;2024-03-02T16:53:36;15.20;99.90
12948;DHT22;6539;49.476;8.484;2024-03-02T16:56:25;15.10;99.90
12948;DHT22;6539;49.476;8.484;2024-03-02T16:59:11;15.10;99.90
12948;DHT22;6539;49.476;8.484;2024-03-02T17:01:57;15.00;99.90
12948;DHT22;6539;49.476;8.484;2024-03-02T17:04:44;15.00;99.90
12948;DHT22;6539;49.476;8.484;2024-03-02T17:07:30;14.90;99.90
12948;DHT22;6539;49.476;8.484;2024-03-02T17:10:17;14.80;99.90
12948;DHT22;6539;49.476;8.484;2024-03-02T17:13:03;14.80;99.90
12948;DHT22;6539;49.476;8.484;2024-03-02T17:15:51;14.80;99.90
12948;DHT22;6539;49.476;8.484;2024-03-02T17:18:40;14.80;99.90
12948;DHT22;6539;49.476;8.484;2024-03-02T17:21:26;14.80;99.90
12948;DHT22;6539;49.476;8.484;2024-03-02T17:24:15;14.80;99.90
12948;DHT22;6539;49.476;8.484;2024-03-02T17:27:01;14.80;99.90
12948;DHT22;6539;49.476;8.484;2024-03-02T17:29:49;14.80;99.90
12948;DHT22;6539;49.476;8.484;2024-03-02T17:32:35;14.60;99.90
12948;DHT22;6539;49.476;8.484;2024-03-02T17:35:26;14.60;99.90
12948;DHT22;6539;49.476;8.484;2024-03-02T17:38:12;14.60;99.90
12948;DHT22;6539;49.476;8.484;2024-03-02T17:41:04;14.50;99.90
12948;DHT22;6539;49.476;8.484;2024-03-02T17:43:52;14.60;99.90
12948;DHT22;6539;49.476;8.484;2024-03-02T17:46:44;14.60;99.90
12948;DHT22;6539;49.476;8.484;2024-03-02T17:49:32;14.50;99.90
12948;DHT22;6539;49.476;8.484;2024-03-02T17:52:21;14.50;99.90
12948;DHT22;6539;49.476;8.484;2024-03-02T17:55:09;14.50;99.90
12948;DHT22;6539;49.476;8.484;2024-03-02T17:57:57;14.40;99.90
12948;DHT22;6539;49.476;8.484;2024-03-02T18:00:46;14.30;99.90
12948;DHT22;6539;49.476;8.484;2024-03-02T18:03:32;14.20;99.90
12948;DHT22;6539;49.476;8.484;2024-03-02T18:06:20;14.20;99.90
12948;DHT22;6539;49.476;8.484;2024-03-02T18:09:06;14.20;99.90